createdAt,value
2022-08-31T00:01:02.935Z,69.80
2022-08-31T00:02:23.773Z,69.80
2022-08-31T00:03:44.961Z,69.80
2022-08-31T00:04:47.667Z,69.80
2022-08-31T00:05:50.539Z,69.80
2022-08-31T00:06:54.140Z,69.80
2022-08-31T00:07:56.747Z,69.80
2022-08-31T00:09:00.327Z,69.80
2022-08-31T00:10:13.938Z,69.80
2022-08-31T00:11:16.890Z,69.80
2022-08-31T00:12:19.706Z,69.80
2022-08-31T00:13:23.758Z,69.80
2022-08-31T00:14:27.233Z,69.90
2022-08-31T00:15:30.136Z,69.80
2022-08-31T00:16:36.192Z,69.90
2022-08-31T00:17:39.504Z,69.90
2022-08-31T00:18:42.016Z,69.90
2022-08-31T00:19:44.618Z,69.80
2022-08-31T00:20:48.066Z,69.90
2022-08-31T00:21:50.503Z,69.90
2022-08-31T00:22:53.032Z,69.90
2022-08-31T00:23:57.330Z,69.90
2022-08-31T00:24:59.817Z,69.90
2022-08-31T00:26:02.341Z,69.90
2022-08-31T00:27:05.063Z,70.40
2022-08-31T00:28:09.138Z,70.00
2022-08-31T00:29:13.262Z,70.00
2022-08-31T00:30:15.958Z,69.90
2022-08-31T00:31:19.360Z,69.90
2022-08-31T00:32:22.956Z,69.90
2022-08-31T00:33:26.960Z,70.00
2022-08-31T00:34:29.329Z,69.90
2022-08-31T00:35:35.999Z,69.90
2022-08-31T00:36:38.502Z,69.90
2022-08-31T00:37:40.926Z,70.00
2022-08-31T00:38:43.550Z,70.00
2022-08-31T00:39:46.595Z,70.00
2022-08-31T00:40:49.376Z,70.00
2022-08-31T00:41:51.973Z,69.90
2022-08-31T00:42:55.144Z,69.90
2022-08-31T00:44:04.082Z,70.00
2022-08-31T00:45:08.846Z,69.90
2022-08-31T00:46:13.979Z,70.00
2022-08-31T00:47:16.571Z,69.90
2022-08-31T00:48:19.080Z,69.90
2022-08-31T00:49:31.329Z,70.00
2022-08-31T00:50:34.277Z,70.00
2022-08-31T00:52:23.171Z,69.90
2022-08-31T00:53:27.123Z,70.00
2022-08-31T00:54:59.859Z,70.00
2022-08-31T00:56:02.808Z,70.00
2022-08-31T00:57:06.678Z,70.00
2022-08-31T00:58:12.890Z,70.00
2022-08-31T00:59:18.277Z,70.00
2022-08-31T01:00:25.527Z,70.00
2022-08-31T01:01:30.185Z,70.00
2022-08-31T01:02:33.210Z,70.00
2022-08-31T01:03:36.460Z,70.00
2022-08-31T01:04:39.392Z,70.00
2022-08-31T01:05:42.576Z,70.00
2022-08-31T01:06:46.818Z,70.00
2022-08-31T01:07:50.679Z,70.00
2022-08-31T01:08:55.489Z,70.00
2022-08-31T01:09:59.463Z,70.10
2022-08-31T01:11:02.386Z,70.00
2022-08-31T01:12:07.885Z,70.00
2022-08-31T01:13:12.853Z,70.00
2022-08-31T01:14:15.526Z,70.00
2022-08-31T01:15:18.195Z,70.00
2022-08-31T01:16:27.166Z,70.00
2022-08-31T01:17:32.592Z,70.10
2022-08-31T01:18:36.220Z,70.10
2022-08-31T01:19:52.727Z,70.10
2022-08-31T01:21:14.361Z,70.00
2022-08-31T01:22:19.657Z,70.10
2022-08-31T01:23:34.797Z,70.10
2022-08-31T01:24:41.759Z,70.10
2022-08-31T01:25:45.996Z,70.10
2022-08-31T01:26:55.745Z,70.10
2022-08-31T01:28:02.120Z,70.10
2022-08-31T01:29:07.019Z,70.60
2022-08-31T01:30:12.219Z,70.10
2022-08-31T01:31:19.321Z,70.10
2022-08-31T01:32:21.826Z,70.10
2022-08-31T01:33:24.308Z,70.10
2022-08-31T01:34:27.074Z,70.10
2022-08-31T01:35:29.825Z,70.70
2022-08-31T01:36:35.579Z,70.10
2022-08-31T01:37:38.335Z,70.10
2022-08-31T01:38:42.246Z,70.10
2022-08-31T01:39:45.035Z,70.10
2022-08-31T01:40:52.993Z,70.10
2022-08-31T01:41:55.736Z,70.20
2022-08-31T01:42:58.184Z,70.20
2022-08-31T01:44:00.945Z,70.20
2022-08-31T01:45:06.293Z,70.10
2022-08-31T01:46:12.588Z,70.20
2022-08-31T01:47:15.179Z,70.10
2022-08-31T01:48:18.262Z,70.20
2022-08-31T01:49:22.944Z,70.20
2022-08-31T01:50:25.438Z,70.20
2022-08-31T01:51:28.128Z,70.20
2022-08-31T01:52:31.419Z,70.10
2022-08-31T01:53:34.462Z,70.20
2022-08-31T01:54:37.015Z,70.20
2022-08-31T01:55:41.019Z,70.20
2022-08-31T01:56:47.279Z,70.20
2022-08-31T01:57:56.486Z,70.20
2022-08-31T01:59:19.991Z,70.20
2022-08-31T02:00:32.347Z,70.20
2022-08-31T02:01:38.537Z,70.20
2022-08-31T02:02:42.082Z,70.20
2022-08-31T02:03:45.789Z,70.20
2022-08-31T02:04:48.330Z,70.20
2022-08-31T02:05:50.791Z,70.30
2022-08-31T02:06:55.932Z,70.20
2022-08-31T02:07:58.436Z,70.20
2022-08-31T02:09:01.751Z,70.20
2022-08-31T02:10:05.190Z,70.30
2022-08-31T02:11:07.938Z,70.20
2022-08-31T02:12:12.778Z,70.20
2022-08-31T02:13:15.880Z,70.20
2022-08-31T02:14:19.689Z,70.30
2022-08-31T02:15:22.314Z,70.30
2022-08-31T02:16:24.805Z,70.20
2022-08-31T02:17:27.324Z,70.30
2022-08-31T02:18:30.514Z,70.30
2022-08-31T02:19:32.950Z,70.30
2022-08-31T02:20:36.480Z,70.30
2022-08-31T02:21:39.196Z,70.30
2022-08-31T02:22:42.887Z,70.30
2022-08-31T02:23:45.564Z,70.30
2022-08-31T02:24:48.063Z,70.20
2022-08-31T02:25:53.110Z,70.30
2022-08-31T02:26:55.651Z,70.30
2022-08-31T02:27:58.056Z,70.30
2022-08-31T02:29:00.804Z,70.50
2022-08-31T02:30:08.970Z,70.30
2022-08-31T02:31:11.701Z,70.30
2022-08-31T02:32:22.883Z,70.30
2022-08-31T02:33:25.789Z,70.30
2022-08-31T02:34:29.369Z,70.30
2022-08-31T02:35:32.814Z,70.30
2022-08-31T02:36:36.151Z,70.20
2022-08-31T02:37:40.452Z,70.30
2022-08-31T02:38:43.948Z,70.30
2022-08-31T02:39:47.054Z,70.30
2022-08-31T02:40:51.892Z,70.40
2022-08-31T02:41:55.401Z,70.30
2022-08-31T02:42:58.015Z,70.30
2022-08-31T02:44:03.051Z,70.30
2022-08-31T02:45:07.118Z,70.30
2022-08-31T02:46:10.378Z,70.40
2022-08-31T02:47:19.014Z,70.40
2022-08-31T02:48:32.683Z,70.40
2022-08-31T02:49:36.225Z,70.40
2022-08-31T02:50:42.035Z,70.40
2022-08-31T02:51:44.739Z,70.40
2022-08-31T02:52:48.077Z,70.40
2022-08-31T02:53:51.270Z,70.30
2022-08-31T02:54:53.725Z,70.40
2022-08-31T02:55:56.241Z,70.40
2022-08-31T02:56:58.716Z,70.40
2022-08-31T02:58:02.058Z,70.40
2022-08-31T02:59:04.785Z,70.40
2022-08-31T03:00:08.648Z,70.40
2022-08-31T03:01:12.081Z,70.40
2022-08-31T03:02:15.122Z,70.40
2022-08-31T03:03:18.180Z,70.40
2022-08-31T03:04:20.928Z,70.40
2022-08-31T03:05:23.683Z,70.40
2022-08-31T03:06:26.539Z,70.50
2022-08-31T03:07:29.081Z,70.50
2022-08-31T03:08:31.697Z,70.40
2022-08-31T03:09:35.470Z,70.40
2022-08-31T03:10:38.046Z,70.40
2022-08-31T03:11:41.062Z,70.40
2022-08-31T03:12:44.289Z,70.40
2022-08-31T03:13:46.769Z,70.40
2022-08-31T03:14:49.197Z,70.40
2022-08-31T03:15:52.179Z,70.50
2022-08-31T03:16:54.769Z,70.40
2022-08-31T03:17:57.323Z,70.40
2022-08-31T03:18:59.863Z,70.50
2022-08-31T03:20:05.928Z,70.40
2022-08-31T03:21:08.474Z,70.50
2022-08-31T03:22:13.419Z,70.50
2022-08-31T03:23:16.095Z,70.40
2022-08-31T03:24:18.949Z,70.40
2022-08-31T03:25:24.086Z,70.50
2022-08-31T03:26:26.653Z,70.40
2022-08-31T03:27:32.284Z,70.40
2022-08-31T03:28:37.485Z,70.50
2022-08-31T03:29:59.142Z,70.50
2022-08-31T03:31:09.494Z,70.60
2022-08-31T03:32:13.713Z,70.50
2022-08-31T03:33:18.740Z,70.50
2022-08-31T03:34:21.358Z,70.60
2022-08-31T03:35:24.007Z,70.50
2022-08-31T03:36:26.693Z,70.50
2022-08-31T03:37:29.215Z,70.50
2022-08-31T03:38:35.201Z,70.50
2022-08-31T03:39:38.960Z,70.50
2022-08-31T03:40:42.568Z,70.50
2022-08-31T03:41:45.291Z,70.50
2022-08-31T03:42:47.867Z,70.50
2022-08-31T03:43:51.950Z,70.50
2022-08-31T03:44:54.634Z,70.60
2022-08-31T03:46:04.423Z,70.50
2022-08-31T03:47:14.687Z,70.50
2022-08-31T03:48:17.913Z,70.50
2022-08-31T03:49:22.666Z,70.60
2022-08-31T03:50:46.032Z,70.60
2022-08-31T03:51:56.890Z,70.60
2022-08-31T03:53:00.889Z,70.60
2022-08-31T03:54:03.405Z,70.60
2022-08-31T03:55:09.496Z,70.60
2022-08-31T03:56:12.811Z,70.60
2022-08-31T03:57:17.469Z,70.60
2022-08-31T03:58:20.066Z,70.60
2022-08-31T03:59:22.601Z,71.20
2022-08-31T04:00:44.341Z,70.60
2022-08-31T04:02:01.902Z,70.60
2022-08-31T04:03:26.140Z,70.60
2022-08-31T04:04:55.002Z,70.60
2022-08-31T04:06:26.407Z,70.60
2022-08-31T04:07:58.687Z,70.70
2022-08-31T04:09:19.411Z,71.10
2022-08-31T04:10:43.872Z,70.60
2022-08-31T04:12:16.931Z,70.60
2022-08-31T04:13:38.845Z,70.60
2022-08-31T04:14:50.241Z,70.60
2022-08-31T04:16:13.918Z,70.60
2022-08-31T04:17:36.983Z,70.60
2022-08-31T04:18:59.834Z,70.60
2022-08-31T04:20:05.774Z,70.60
2022-08-31T04:21:25.290Z,71.10
2022-08-31T04:22:27.799Z,70.60
2022-08-31T04:23:53.266Z,70.70
2022-08-31T04:24:55.976Z,70.70
2022-08-31T04:25:58.616Z,70.70
2022-08-31T04:27:01.764Z,70.70
2022-08-31T04:28:05.387Z,70.60
2022-08-31T04:29:13.141Z,70.70
2022-08-31T04:30:16.782Z,70.60
2022-08-31T04:31:20.912Z,70.60
2022-08-31T04:32:24.546Z,71.20
2022-08-31T04:33:27.162Z,70.70
2022-08-31T04:34:29.726Z,70.70
2022-08-31T04:35:32.181Z,70.70
2022-08-31T04:36:35.043Z,70.70
2022-08-31T04:37:37.524Z,70.70
2022-08-31T04:38:46.064Z,70.70
2022-08-31T04:39:49.487Z,70.70
2022-08-31T04:40:53.797Z,70.70
2022-08-31T04:41:56.405Z,70.70
2022-08-31T04:43:00.382Z,70.60
2022-08-31T04:44:04.495Z,70.70
2022-08-31T04:45:07.674Z,70.60
2022-08-31T04:46:10.737Z,70.60
2022-08-31T04:47:15.760Z,70.70
2022-08-31T04:48:19.530Z,70.70
2022-08-31T04:49:22.714Z,70.70
2022-08-31T04:50:25.199Z,70.70
2022-08-31T04:51:42.537Z,70.70
2022-08-31T04:52:45.157Z,70.70
2022-08-31T04:54:09.474Z,70.70
2022-08-31T04:55:14.801Z,70.70
2022-08-31T04:56:23.446Z,70.70
2022-08-31T04:57:26.139Z,70.70
2022-08-31T04:58:28.718Z,70.70
2022-08-31T04:59:31.454Z,70.70
2022-08-31T05:00:59.854Z,70.70
2022-08-31T05:02:40.257Z,70.70
2022-08-31T05:03:53.125Z,70.70
2022-08-31T05:04:55.651Z,70.70
2022-08-31T05:05:58.196Z,70.80
2022-08-31T05:07:00.735Z,70.80
2022-08-31T05:08:05.167Z,70.80
2022-08-31T05:09:12.688Z,70.80
2022-08-31T05:10:18.811Z,70.80
2022-08-31T05:11:24.957Z,70.80
2022-08-31T05:12:27.732Z,70.80
2022-08-31T05:13:30.924Z,70.70
2022-08-31T05:14:35.698Z,70.70
2022-08-31T05:15:46.139Z,70.80
2022-08-31T05:16:54.236Z,70.70
2022-08-31T05:17:59.927Z,70.80
2022-08-31T05:19:02.980Z,70.80
2022-08-31T05:20:06.459Z,70.80
2022-08-31T05:21:13.980Z,70.80
2022-08-31T05:22:16.419Z,70.70
2022-08-31T05:23:20.624Z,70.80
2022-08-31T05:24:23.324Z,70.80
2022-08-31T05:25:27.596Z,70.80
2022-08-31T05:26:33.730Z,70.80
2022-08-31T05:27:36.480Z,70.80
2022-08-31T05:28:38.912Z,70.80
2022-08-31T05:29:41.578Z,70.80
2022-08-31T05:31:17.060Z,70.80
2022-08-31T05:32:20.664Z,70.80
2022-08-31T05:33:24.383Z,70.80
2022-08-31T05:34:26.995Z,70.80
2022-08-31T05:35:31.228Z,70.80
2022-08-31T05:36:34.350Z,70.80
2022-08-31T05:37:36.883Z,70.80
2022-08-31T05:38:39.871Z,70.80
2022-08-31T05:39:42.998Z,70.80
2022-08-31T05:40:52.518Z,70.80
2022-08-31T05:41:55.015Z,70.80
2022-08-31T05:42:59.459Z,70.80
2022-08-31T05:44:05.482Z,70.80
2022-08-31T05:45:10.185Z,70.80
2022-08-31T05:46:14.687Z,70.80
2022-08-31T05:47:17.286Z,70.80
2022-08-31T05:48:19.838Z,70.80
2022-08-31T05:49:22.309Z,70.80
2022-08-31T05:50:30.200Z,70.80
2022-08-31T05:51:38.425Z,70.80
2022-08-31T05:52:41.086Z,70.80
2022-08-31T05:53:44.467Z,70.70
2022-08-31T05:54:47.437Z,70.80
2022-08-31T05:55:57.592Z,70.80
2022-08-31T05:57:01.338Z,70.80
2022-08-31T05:58:05.457Z,70.70
2022-08-31T05:59:07.973Z,70.80
2022-08-31T06:00:11.264Z,70.80
2022-08-31T06:01:33.008Z,70.80
2022-08-31T06:02:53.920Z,70.80
2022-08-31T06:03:57.367Z,70.70
2022-08-31T06:05:00.107Z,70.70
2022-08-31T06:06:02.727Z,70.70
2022-08-31T06:07:06.474Z,70.70
2022-08-31T06:08:19.110Z,70.70
2022-08-31T06:09:30.819Z,70.70
2022-08-31T06:10:36.265Z,70.70
2022-08-31T06:11:42.054Z,70.70
2022-08-31T06:12:47.943Z,70.70
2022-08-31T06:13:55.326Z,70.70
2022-08-31T06:14:57.796Z,70.70
2022-08-31T06:16:03.905Z,70.70
2022-08-31T06:17:06.852Z,70.70
2022-08-31T06:18:10.078Z,70.70
2022-08-31T06:19:12.818Z,70.60
2022-08-31T06:20:18.481Z,70.60
2022-08-31T06:21:35.553Z,70.60
2022-08-31T06:22:38.280Z,70.60
2022-08-31T06:23:45.168Z,70.60
2022-08-31T06:24:47.597Z,70.60
2022-08-31T06:25:50.730Z,70.60
2022-08-31T06:26:58.959Z,70.60
2022-08-31T06:28:14.221Z,70.60
2022-08-31T06:29:16.945Z,70.60
2022-08-31T06:30:20.907Z,70.60
2022-08-31T06:31:31.081Z,70.60
2022-08-31T06:32:33.944Z,70.60
2022-08-31T06:33:39.823Z,70.60
2022-08-31T06:34:50.965Z,70.50
2022-08-31T06:36:19.151Z,70.60
2022-08-31T06:37:48.926Z,70.50
2022-08-31T06:39:30.242Z,70.50
2022-08-31T06:40:49.909Z,70.50
2022-08-31T06:42:17.575Z,70.50
2022-08-31T06:43:31.956Z,70.50
2022-08-31T06:44:37.840Z,70.50
2022-08-31T06:46:03.455Z,70.50
2022-08-31T06:47:08.691Z,70.50
2022-08-31T06:48:14.708Z,70.50
2022-08-31T06:49:19.166Z,70.50
2022-08-31T06:50:21.669Z,70.50
2022-08-31T06:51:28.504Z,71.00
2022-08-31T06:52:33.003Z,70.50
2022-08-31T06:53:53.077Z,70.40
2022-08-31T06:55:14.416Z,70.50
2022-08-31T06:56:35.625Z,70.40
2022-08-31T06:57:56.471Z,70.40
2022-08-31T06:59:17.265Z,70.40
2022-08-31T07:00:52.917Z,70.40
2022-08-31T07:02:19.597Z,70.40
2022-08-31T07:03:32.957Z,70.40
2022-08-31T07:04:38.552Z,70.40
2022-08-31T07:05:41.160Z,70.40
2022-08-31T07:06:45.112Z,70.30
2022-08-31T07:07:47.657Z,70.30
2022-08-31T07:08:54.259Z,70.30
2022-08-31T07:09:57.554Z,70.30
2022-08-31T07:11:00.147Z,70.30
2022-08-31T07:12:03.997Z,70.30
2022-08-31T07:13:06.523Z,70.30
2022-08-31T07:14:12.292Z,70.40
2022-08-31T07:15:16.192Z,70.30
2022-08-31T07:16:21.149Z,70.30
2022-08-31T07:17:24.609Z,70.30
2022-08-31T07:18:27.238Z,70.30
2022-08-31T07:19:30.906Z,70.30
2022-08-31T07:20:33.557Z,70.30
2022-08-31T07:21:41.097Z,70.30
2022-08-31T07:22:43.517Z,70.20
2022-08-31T07:24:05.975Z,70.30
2022-08-31T07:25:10.903Z,70.30
2022-08-31T07:26:19.892Z,70.30
2022-08-31T07:27:22.389Z,70.30
2022-08-31T07:28:31.266Z,70.20
2022-08-31T07:29:40.163Z,70.30
2022-08-31T07:30:45.648Z,70.30
2022-08-31T07:31:52.109Z,70.30
2022-08-31T07:32:56.354Z,70.30
2022-08-31T07:33:59.936Z,70.20
2022-08-31T07:35:03.179Z,70.20
2022-08-31T07:36:08.235Z,70.20
2022-08-31T07:37:47.725Z,70.20
2022-08-31T07:39:09.164Z,70.30
2022-08-31T07:40:31.882Z,70.20
2022-08-31T07:41:54.938Z,70.20
2022-08-31T07:43:02.049Z,70.20
2022-08-31T07:44:05.094Z,70.20
2022-08-31T07:45:13.307Z,70.20
2022-08-31T07:46:15.898Z,70.20
2022-08-31T07:47:20.365Z,70.20
2022-08-31T07:48:27.758Z,70.20
2022-08-31T07:49:47.657Z,70.20
2022-08-31T07:51:04.206Z,70.20
2022-08-31T07:52:28.466Z,70.10
2022-08-31T07:53:47.354Z,70.20
2022-08-31T07:55:11.822Z,70.10
2022-08-31T07:56:37.137Z,70.20
2022-08-31T07:57:56.301Z,70.10
2022-08-31T07:58:58.974Z,70.20
2022-08-31T08:00:08.652Z,70.20
2022-08-31T08:01:18.586Z,70.20
2022-08-31T08:02:21.365Z,70.10
2022-08-31T08:03:24.134Z,70.10
2022-08-31T08:04:53.318Z,70.10
2022-08-31T08:06:17.676Z,70.20
2022-08-31T08:07:40.355Z,70.10
2022-08-31T08:09:21.484Z,70.10
2022-08-31T08:10:33.843Z,70.10
2022-08-31T08:11:46.720Z,70.10
2022-08-31T08:13:05.765Z,70.10
2022-08-31T08:14:39.826Z,70.10
2022-08-31T08:16:02.765Z,70.10
2022-08-31T08:17:32.934Z,70.10
2022-08-31T08:18:47.064Z,70.10
2022-08-31T08:19:53.125Z,70.00
2022-08-31T08:20:57.278Z,70.10
2022-08-31T08:22:02.817Z,70.00
2022-08-31T08:23:15.765Z,70.00
2022-08-31T08:24:41.745Z,70.00
2022-08-31T08:26:09.462Z,70.00
2022-08-31T08:27:30.539Z,70.00
2022-08-31T08:28:46.724Z,70.00
2022-08-31T08:29:52.694Z,70.00
2022-08-31T08:31:01.492Z,70.00
2022-08-31T08:32:08.638Z,69.90
2022-08-31T08:33:11.148Z,69.90
2022-08-31T08:34:18.872Z,69.90
2022-08-31T08:35:21.971Z,70.50
2022-08-31T08:36:25.331Z,70.00
2022-08-31T08:37:54.478Z,69.90
2022-08-31T08:38:54.251Z,69.90
2022-08-31T08:40:04.988Z,69.90
2022-08-31T08:41:19.076Z,69.90
2022-08-31T08:42:23.044Z,69.90
2022-08-31T08:43:32.367Z,69.80
2022-08-31T08:44:36.960Z,69.80
2022-08-31T08:45:40.362Z,69.80
2022-08-31T08:46:48.675Z,69.80
2022-08-31T08:47:55.013Z,69.80
2022-08-31T08:49:00.630Z,69.80
2022-08-31T08:50:07.171Z,69.80
2022-08-31T08:51:17.188Z,69.80
2022-08-31T08:52:36.121Z,69.80
2022-08-31T08:53:42.113Z,69.80
2022-08-31T08:55:05.574Z,69.80
2022-08-31T08:56:31.930Z,69.80
2022-08-31T08:57:38.911Z,69.70
2022-08-31T08:58:44.035Z,69.70
2022-08-31T08:59:48.255Z,69.70
2022-08-31T09:00:53.926Z,69.70
2022-08-31T09:02:06.700Z,69.70
2022-08-31T09:03:21.149Z,69.70
2022-08-31T09:04:59.521Z,69.70
2022-08-31T09:06:45.761Z,69.70
2022-08-31T09:08:23.430Z,69.70
2022-08-31T09:09:57.263Z,69.70
2022-08-31T09:11:11.138Z,69.70
2022-08-31T09:12:26.280Z,69.60
2022-08-31T09:13:59.397Z,69.60
2022-08-31T09:15:28.309Z,69.60
2022-08-31T09:16:57.166Z,69.60
2022-08-31T09:18:36.879Z,69.60
2022-08-31T09:20:00.433Z,70.20
2022-08-31T09:21:17.358Z,69.60
2022-08-31T09:22:19.864Z,69.60
2022-08-31T09:23:23.554Z,69.60
2022-08-31T09:24:28.196Z,69.60
2022-08-31T09:25:52.022Z,69.60
2022-08-31T09:27:19.071Z,69.60
2022-08-31T09:28:47.094Z,69.60
2022-08-31T09:30:01.693Z,69.60
2022-08-31T09:31:04.799Z,69.60
2022-08-31T09:32:09.884Z,69.60
2022-08-31T09:33:25.637Z,69.60
2022-08-31T09:34:31.936Z,69.60
2022-08-31T09:35:41.201Z,69.60
2022-08-31T09:36:43.629Z,69.60
2022-08-31T09:38:02.717Z,69.60
2022-08-31T09:39:36.973Z,69.60
2022-08-31T09:40:49.671Z,69.50
2022-08-31T09:41:52.858Z,69.50
2022-08-31T09:43:24.888Z,69.60
2022-08-31T09:44:32.478Z,69.50
2022-08-31T09:45:41.306Z,69.50
2022-08-31T09:46:53.446Z,69.60
2022-08-31T09:48:01.087Z,69.50
2022-08-31T09:49:05.323Z,69.50
2022-08-31T09:50:09.344Z,69.50
2022-08-31T09:51:22.715Z,69.50
2022-08-31T09:52:48.101Z,69.50
2022-08-31T09:54:09.192Z,70.00
2022-08-31T09:55:18.350Z,69.50
2022-08-31T09:56:23.505Z,69.50
2022-08-31T09:57:53.932Z,69.50
2022-08-31T09:59:02.657Z,69.50
2022-08-31T10:00:05.755Z,69.50
2022-08-31T10:01:22.376Z,69.40
2022-08-31T10:02:38.005Z,69.50
2022-08-31T10:03:45.314Z,69.40
2022-08-31T10:04:52.176Z,69.40
2022-08-31T10:05:55.829Z,69.40
2022-08-31T10:07:28.777Z,69.40
2022-08-31T10:08:42.243Z,69.40
2022-08-31T10:09:57.669Z,69.40
2022-08-31T10:11:10.306Z,69.40
2022-08-31T10:12:20.870Z,69.40
2022-08-31T10:13:57.234Z,69.40
2022-08-31T10:15:05.311Z,69.40
2022-08-31T10:16:27.525Z,69.40
2022-08-31T10:17:36.083Z,69.40
2022-08-31T10:18:52.182Z,69.30
2022-08-31T10:20:06.266Z,69.30
2022-08-31T10:21:13.502Z,69.30
2022-08-31T10:22:28.249Z,69.30
2022-08-31T10:23:34.714Z,69.30
2022-08-31T10:24:46.257Z,69.30
2022-08-31T10:25:58.305Z,69.30
2022-08-31T10:27:13.614Z,69.30
2022-08-31T10:28:31.640Z,69.30
2022-08-31T10:29:57.807Z,69.20
2022-08-31T10:31:21.195Z,69.20
2022-08-31T10:32:36.172Z,69.30
2022-08-31T10:34:06.017Z,69.20
2022-08-31T10:35:41.132Z,69.20
2022-08-31T10:36:45.734Z,69.20
2022-08-31T10:38:08.221Z,69.10
2022-08-31T10:39:36.148Z,69.20
2022-08-31T10:41:10.870Z,69.10
2022-08-31T10:42:24.419Z,69.10
2022-08-31T10:43:44.654Z,69.10
2022-08-31T10:44:59.278Z,69.10
2022-08-31T10:46:02.343Z,69.10
2022-08-31T10:47:05.797Z,69.10
2022-08-31T10:48:10.758Z,69.10
2022-08-31T10:49:13.654Z,69.10
2022-08-31T10:50:27.125Z,69.10
2022-08-31T10:51:46.218Z,69.00
2022-08-31T10:53:00.595Z,69.00
2022-08-31T10:54:47.409Z,69.00
2022-08-31T10:56:04.248Z,69.00
2022-08-31T10:57:19.487Z,69.00
2022-08-31T10:58:42.323Z,69.00
2022-08-31T10:59:57.761Z,69.00
2022-08-31T11:01:20.401Z,69.00
2022-08-31T11:02:58.345Z,68.90
2022-08-31T11:04:19.849Z,68.90
2022-08-31T11:05:37.232Z,68.90
2022-08-31T11:06:47.980Z,68.90
2022-08-31T11:08:00.364Z,68.90
2022-08-31T11:09:20.033Z,68.90
2022-08-31T11:10:28.578Z,68.90
2022-08-31T11:12:07.077Z,68.90
2022-08-31T11:13:49.539Z,68.80
2022-08-31T11:15:06.296Z,68.80
2022-08-31T11:16:36.880Z,68.80
2022-08-31T11:18:22.901Z,68.80
2022-08-31T11:19:40.051Z,68.80
2022-08-31T11:21:04.102Z,68.80
2022-08-31T11:22:34.305Z,68.80
2022-08-31T11:24:11.594Z,68.70
2022-08-31T11:25:47.410Z,68.70
2022-08-31T11:27:11.765Z,68.70
2022-08-31T11:28:33.908Z,68.70
2022-08-31T11:29:46.291Z,68.60
2022-08-31T11:30:50.949Z,68.70
2022-08-31T11:31:55.117Z,68.70
2022-08-31T11:33:07.593Z,68.70
2022-08-31T11:34:17.346Z,68.70
2022-08-31T11:35:44.631Z,68.70
2022-08-31T11:37:00.004Z,68.60
2022-08-31T11:38:54.867Z,68.70
2022-08-31T11:39:57.383Z,68.60
2022-08-31T11:41:02.859Z,68.60
2022-08-31T11:42:12.325Z,68.60
2022-08-31T11:43:31.426Z,68.60
2022-08-31T11:44:39.229Z,68.60
2022-08-31T11:45:42.723Z,68.60
2022-08-31T11:47:00.274Z,68.60
2022-08-31T11:48:06.925Z,68.60
2022-08-31T11:49:10.957Z,68.60
2022-08-31T11:50:36.492Z,68.60
2022-08-31T11:51:42.027Z,68.60
2022-08-31T11:52:53.587Z,68.60
2022-08-31T11:53:56.140Z,68.60
2022-08-31T11:55:22.229Z,68.50
2022-08-31T11:56:51.099Z,68.60
2022-08-31T11:58:20.675Z,68.50
2022-08-31T11:59:35.202Z,68.60
2022-08-31T12:00:57.268Z,68.50
2022-08-31T12:02:19.877Z,68.60
2022-08-31T12:03:44.366Z,68.50
2022-08-31T12:04:52.106Z,68.50
2022-08-31T12:05:57.757Z,68.40
2022-08-31T12:07:04.127Z,68.40
2022-08-31T12:08:15.279Z,68.50
2022-08-31T12:09:36.623Z,68.40
2022-08-31T12:10:56.820Z,68.50
2022-08-31T12:12:17.401Z,68.40
2022-08-31T12:13:49.711Z,68.50
2022-08-31T12:14:57.464Z,68.40
2022-08-31T12:16:12.280Z,68.40
2022-08-31T12:17:24.823Z,68.30
2022-08-31T12:18:52.217Z,68.40
2022-08-31T12:20:16.116Z,68.40
2022-08-31T12:21:39.895Z,68.30
2022-08-31T12:23:30.829Z,68.30
2022-08-31T12:24:38.574Z,68.30
2022-08-31T12:26:03.019Z,68.30
2022-08-31T12:27:20.488Z,68.80
2022-08-31T12:28:34.833Z,68.30
2022-08-31T12:29:39.533Z,68.20
2022-08-31T12:30:51.149Z,68.20
2022-08-31T12:32:10.945Z,68.20
2022-08-31T12:33:17.904Z,68.20
2022-08-31T12:34:23.710Z,68.20
2022-08-31T12:35:31.459Z,68.20
2022-08-31T12:36:36.533Z,68.20
2022-08-31T12:37:40.060Z,68.10
2022-08-31T12:38:42.597Z,68.10
2022-08-31T12:39:44.963Z,68.10
2022-08-31T12:40:55.263Z,68.10
2022-08-31T12:42:05.501Z,68.10
2022-08-31T12:43:24.222Z,68.10
2022-08-31T12:44:31.500Z,68.60
2022-08-31T12:46:04.086Z,68.10
2022-08-31T12:47:32.312Z,68.10
2022-08-31T12:48:49.303Z,68.60
2022-08-31T12:50:17.862Z,68.00
2022-08-31T12:51:59.261Z,68.10
2022-08-31T12:53:20.578Z,68.00
2022-08-31T12:54:31.805Z,67.90
2022-08-31T12:55:34.274Z,68.00
2022-08-31T12:56:54.423Z,68.00
2022-08-31T12:58:11.338Z,67.90
2022-08-31T12:59:40.816Z,67.80
2022-08-31T13:00:48.466Z,67.70
2022-08-31T13:01:53.222Z,67.60
2022-08-31T13:03:05.705Z,67.50
2022-08-31T13:04:10.795Z,67.40
2022-08-31T13:05:30.972Z,67.20
2022-08-31T13:06:37.278Z,67.00
2022-08-31T13:07:39.819Z,67.00
2022-08-31T13:08:47.406Z,67.00
2022-08-31T13:10:08.368Z,66.90
2022-08-31T13:11:40.865Z,67.00
2022-08-31T13:12:56.937Z,67.10
2022-08-31T13:14:20.759Z,67.20
2022-08-31T13:15:29.447Z,67.10
2022-08-31T13:16:32.083Z,67.20
2022-08-31T13:17:39.639Z,67.20
2022-08-31T13:18:42.443Z,67.00
2022-08-31T13:19:50.054Z,67.00
2022-08-31T13:21:05.851Z,67.00
2022-08-31T13:22:17.391Z,67.00
2022-08-31T13:23:34.822Z,67.00
2022-08-31T13:24:51.336Z,67.00
2022-08-31T13:26:02.382Z,67.00
2022-08-31T13:27:12.449Z,66.80
2022-08-31T13:28:14.811Z,66.80
2022-08-31T13:29:24.034Z,66.80
2022-08-31T13:30:26.498Z,66.70
2022-08-31T13:31:32.997Z,66.70
2022-08-31T13:32:35.582Z,66.60
2022-08-31T13:33:42.507Z,66.60
2022-08-31T13:34:47.982Z,66.60
2022-08-31T13:36:03.799Z,66.50
2022-08-31T13:37:11.498Z,66.50
2022-08-31T13:38:15.566Z,66.50
2022-08-31T13:39:29.578Z,66.40
2022-08-31T13:40:35.483Z,66.40
2022-08-31T13:41:43.350Z,66.40
2022-08-31T13:42:56.528Z,66.40
2022-08-31T13:44:03.749Z,66.40
2022-08-31T13:45:19.096Z,66.40
2022-08-31T13:46:43.202Z,66.20
2022-08-31T13:47:58.421Z,66.40
2022-08-31T13:49:05.995Z,66.40
2022-08-31T13:50:19.201Z,66.30
2022-08-31T13:51:25.737Z,66.30
2022-08-31T13:52:30.347Z,66.20
2022-08-31T13:53:40.180Z,66.20
2022-08-31T13:54:42.907Z,66.10
2022-08-31T13:55:47.427Z,66.10
2022-08-31T13:56:55.939Z,66.00
2022-08-31T13:58:26.132Z,66.10
2022-08-31T13:59:32.791Z,66.20
2022-08-31T14:00:41.403Z,66.30
2022-08-31T14:01:48.107Z,66.20
2022-08-31T14:02:50.751Z,66.30
2022-08-31T14:03:59.062Z,66.10
2022-08-31T14:05:05.390Z,66.10
2022-08-31T14:06:34.764Z,66.20
2022-08-31T14:07:40.870Z,66.20
2022-08-31T14:08:49.923Z,66.30
2022-08-31T14:09:55.761Z,66.30
2022-08-31T14:10:58.325Z,66.30
2022-08-31T14:12:05.246Z,66.50
2022-08-31T14:13:13.850Z,66.50
2022-08-31T14:14:16.357Z,66.60
2022-08-31T14:15:41.186Z,66.50
2022-08-31T14:16:50.332Z,66.50
2022-08-31T14:19:38.740Z,66.40
2022-08-31T14:21:10.019Z,66.40
2022-08-31T14:22:45.526Z,66.20
2022-08-31T14:24:00.922Z,66.30
2022-08-31T14:25:03.530Z,66.20
2022-08-31T14:26:15.654Z,66.20
2022-08-31T14:27:20.114Z,66.00
2022-08-31T14:28:27.978Z,66.10
2022-08-31T14:29:33.987Z,66.00
2022-08-31T14:30:39.184Z,66.00
2022-08-31T14:31:52.953Z,66.00
2022-08-31T14:32:56.538Z,66.00
2022-08-31T14:34:11.063Z,66.00
2022-08-31T14:35:14.052Z,65.90
2022-08-31T14:36:19.227Z,65.90
2022-08-31T14:37:23.178Z,65.90
2022-08-31T14:38:25.745Z,65.90
2022-08-31T14:39:31.467Z,65.80
2022-08-31T14:40:35.813Z,65.80
2022-08-31T14:41:38.342Z,65.80
2022-08-31T14:42:41.478Z,65.80
2022-08-31T14:43:45.656Z,65.80
2022-08-31T14:44:59.087Z,65.80
2022-08-31T14:46:01.590Z,65.80
2022-08-31T14:47:04.362Z,65.80
2022-08-31T14:48:10.828Z,65.70
2022-08-31T14:49:13.270Z,65.80
2022-08-31T14:50:21.501Z,65.80
2022-08-31T14:51:25.262Z,65.70
2022-08-31T14:52:28.405Z,65.80
2022-08-31T14:53:37.621Z,65.60
2022-08-31T14:54:40.925Z,65.70
2022-08-31T14:55:44.115Z,65.70
2022-08-31T14:56:51.561Z,65.70
2022-08-31T14:58:01.501Z,65.70
2022-08-31T14:59:06.618Z,65.70
2022-08-31T15:00:12.018Z,65.60
2022-08-31T15:01:16.136Z,65.60
2022-08-31T15:02:21.619Z,65.60
2022-08-31T15:03:24.639Z,65.60
2022-08-31T15:04:28.788Z,65.60
2022-08-31T15:05:32.283Z,65.60
2022-08-31T15:06:35.110Z,65.60